Time;durP1;ratioP1;P1;durP2;ratioP2;P2;SDS_P1;SDS_P2;PMS_P1;PMS_P2;Temp;Humidity;BMP_temperature;BMP_pressure;BME280_temperature;BME280_humidity;BME280_pressure;Samples;Min_cycle;Max_cycle;Signal;HPM_P1;HPM_P2
2023/09/18 00:00:11;;;;;;;6.40;5.80;;;;;;;21.23;64.47;99076.97;5149901;27;20294;-72
2023/09/18 00:02:39;;;;;;;6.15;5.55;;;;;;;21.02;64.04;99057.59;5148752;27;20096;-72
2023/09/18 00:05:06;;;;;;;6.45;5.47;;;;;;;20.62;62.92;99017.75;5149604;27;20043;-73
2023/09/18 00:07:34;;;;;;;6.72;5.93;;;;;;;20.98;62.96;99072.38;5149796;27;20039;-73
2023/09/18 00:10:01;;;;;;;6.95;6.25;;;;;;;20.58;62.62;99006.44;5148740;27;20310;-73
2023/09/18 00:12:27;;;;;;;6.45;5.82;;;;;;;20.90;62.60;99075.88;5149837;27;20035;-73
2023/09/18 00:14:54;;;;;;;6.22;5.63;;;;;;;20.69;62.79;99035.81;5149769;27;20321;-73
2023/09/18 00:17:22;;;;;;;7.30;5.50;;;;;;;20.93;63.85;99067.47;5149317;27;20108;-74
2023/09/18 00:19:51;;;;;;;5.97;5.38;;;;;;;20.92;63.99;99070.31;5149973;27;20111;-73
2023/09/18 00:22:18;;;;;;;6.80;6.10;;;;;;;20.88;64.08;99058.16;5149680;27;20055;-73
2023/09/18 00:24:46;;;;;;;7.35;6.00;;;;;;;20.47;63.78;98994.06;5148323;27;20084;-73
2023/09/18 00:27:12;;;;;;;8.02;5.45;;;;;;;20.89;64.11;99058.00;5149194;27;20043;-73
2023/09/18 00:29:39;;;;;;;7.05;6.20;;;;;;;20.51;63.72;99013.44;5149428;27;20187;-73
2023/09/18 00:32:07;;;;;;;12.35;5.60;;;;;;;20.43;63.83;99003.47;5149353;27;20047;-73
2023/09/18 00:34:34;;;;;;;6.88;5.63;;;;;;;20.83;65.15;99058.63;5148956;27;20102;-73
2023/09/18 00:37:01;;;;;;;7.57;5.80;;;;;;;20.56;64.44;99008.44;5149346;27;20061;-73
2023/09/18 00:39:28;;;;;;;6.82;6.13;;;;;;;19.83;64.47;98897.47;5148158;27;20241;-73
2023/09/18 00:41:56;;;;;;;7.15;6.45;;;;;;;20.55;64.03;99009.44;5149191;27;20062;-73
2023/09/18 00:44:23;;;;;;;7.05;5.55;;;;;;;20.35;65.27;98983.72;5148721;27;20303;-73
2023/09/18 00:46:58;;;;;;;7.05;6.32;;;;;;;20.74;64.71;99060.41;5149378;27;20300;-73
2023/09/18 00:49:25;;;;;;;6.40;5.80;;;;;;;20.84;64.78;99063.03;5147856;27;20031;-73
2023/09/18 00:51:52;;;;;;;7.35;6.03;;;;;;;20.63;65.42;99009.50;5148115;27;20043;-73
2023/09/18 00:54:20;;;;;;;7.30;6.60;;;;;;;20.80;64.64;99049.03;5148891;27;20042;-73
2023/09/18 00:56:48;;;;;;;7.10;6.40;;;;;;;20.69;65.01;99045.72;5148608;27;20043;-73
2023/09/18 00:59:16;;;;;;;6.78;6.18;;;;;;;20.64;64.97;99042.66;5147648;27;20184;-73
2023/09/18 01:01:44;;;;;;;7.75;6.53;;;;;;;20.54;64.87;99040.06;5147814;27;20039;-73
2023/09/18 01:04:13;;;;;;;8.02;6.15;;;;;;;20.54;65.23;99044.59;5148460;27;20047;-73
2023/09/18 01:06:39;;;;;;;6.88;6.20;;;;;;;20.44;64.65;99045.53;5149834;27;20088;-73
2023/09/18 01:09:12;;;;;;;7.57;6.47;;;;;;;20.18;65.48;99010.44;5149381;27;20045;-73
2023/09/18 01:11:47;;;;;;;6.82;6.13;;;;;;;17.97;65.61;98620.53;5147478;27;20296;-72
2023/09/18 01:14:20;;;;;;;7.18;6.47;;;;;;;20.32;66.17;99008.25;5148486;27;20050;-73
2023/09/18 01:16:54;;;;;;;6.93;6.20;;;;;;;20.44;65.83;99028.53;5148065;27;20228;-73
2023/09/18 01:19:35;;;;;;;6.25;5.65;;;;;;;20.37;66.84;98995.16;5148417;27;20046;-75
2023/09/18 01:22:02;;;;;;;9.88;6.18;;;;;;;20.55;66.65;99022.91;5148343;27;20047;-75
2023/09/18 01:24:30;;;;;;;7.13;6.40;;;;;;;20.59;67.22;99020.75;5148584;27;20060;-74
2023/09/18 01:26:57;;;;;;;6.78;6.07;;;;;;;20.28;67.17;98970.03;5148292;27;20229;-73
2023/09/18 01:29:24;;;;;;;6.97;6.28;;;;;;;20.57;66.61;99012.00;5147746;27;20031;-74
2023/09/18 01:31:51;;;;;;;7.07;6.30;;;;;;;20.46;66.55;99011.22;5147021;27;20249;-74
2023/09/18 01:34:21;;;;;;;7.82;5.85;;;;;;;20.54;67.45;99015.84;5148125;27;20084;-74
2023/09/18 01:36:49;;;;;;;6.57;5.93;;;;;;;20.55;66.99;99014.00;5148093;27;20096;-73
2023/09/18 01:39:17;;;;;;;7.15;6.47;;;;;;;20.56;66.96;99008.44;5148247;27;20051;-73
2023/09/18 01:41:46;;;;;;;7.32;6.57;;;;;;;20.52;67.75;99011.59;5146680;27;20118;-73
2023/09/18 01:44:13;;;;;;;6.03;5.43;;;;;;;19.99;66.62;98899.47;5147899;27;20043;-73
2023/09/18 01:46:42;;;;;;;9.60;6.68;;;;;;;20.52;67.80;98999.00;5147785;27;20099;-73
2023/09/18 01:49:08;;;;;;;8.02;6.78;;;;;;;20.54;67.81;99001.53;5146792;27;20051;-73
2023/09/18 01:51:35;;;;;;;6.18;5.57;;;;;;;20.52;67.07;99001.69;5147752;27;20066;-74
2023/09/18 01:54:03;;;;;;;6.75;6.15;;;;;;;20.51;67.32;99000.00;5147074;27;20087;-74
2023/09/18 01:56:30;;;;;;;8.55;6.82;;;;;;;20.46;67.40;99002.31;5146571;27;20087;-74
2023/09/18 01:58:58;;;;;;;6.85;6.18;;;;;;;20.19;67.25;98966.41;5146479;27;20039;-74
2023/09/18 02:01:25;;;;;;;7.00;6.30;;;;;;;20.50;67.97;99004.53;5147320;27;20051;-74
2023/09/18 02:03:51;;;;;;;6.35;5.75;;;;;;;20.47;67.16;99004.00;5147258;27;20180;-74
2023/09/18 02:06:18;;;;;;;8.13;6.05;;;;;;;18.01;67.43;98603.16;5147289;27;20043;-74
2023/09/18 02:08:45;;;;;;;6.50;5.93;;;;;;;20.38;67.62;98991.47;5147498;27;20092;-73
2023/09/18 02:11:11;;;;;;;7.93;6.43;;;;;;;20.28;67.44;98996.09;5147498;27;20051;-74
2023/09/18 02:13:38;;;;;;;8.05;6.22;;;;;;;20.10;67.52;98975.41;5147392;27;20042;-74
2023/09/18 02:16:06;;;;;;;6.55;5.95;;;;;;;20.13;67.31;98996.59;5146235;27;20039;-75
2023/09/18 02:18:33;;;;;;;7.45;6.75;;;;;;;20.19;68.33;99000.53;5146422;27;20035;-74
2023/09/18 02:21:01;;;;;;;6.88;6.18;;;;;;;20.26;68.90;98992.72;5147021;27;20061;-74
2023/09/18 02:23:28;;;;;;;7.43;6.38;;;;;;;20.31;68.28;98988.56;5147563;27;20050;-74
2023/09/18 02:25:58;;;;;;;6.75;6.15;;;;;;;19.74;67.69;98931.47;5147222;27;20035;-74
2023/09/18 02:28:25;;;;;;;6.68;5.97;;;;;;;20.21;68.97;98976.16;5146546;27;20199;-74
2023/09/18 02:30:52;;;;;;;7.57;6.88;;;;;;;20.18;68.07;98975.47;5147233;27;20051;-74
2023/09/18 02:33:20;;;;;;;7.63;6.82;;;;;;;20.19;69.61;98979.84;5147108;27;20043;-74
2023/09/18 02:35:47;;;;;;;7.22;6.47;;;;;;;20.25;68.87;98985.66;5146783;27;20035;-74
2023/09/18 02:38:14;;;;;;;7.75;7.05;;;;;;;20.25;68.76;98974.88;5145810;27;20043;-75
2023/09/18 02:40:41;;;;;;;8.30;6.40;;;;;;;20.23;69.43;98969.66;5147240;28;20039;-75
2023/09/18 02:43:08;;;;;;;7.85;7.07;;;;;;;20.21;69.30;98965.41;5146640;28;20043;-75
2023/09/18 02:45:34;;;;;;;6.82;6.22;;;;;;;20.23;69.48;98960.75;5145792;28;20100;-75
2023/09/18 02:48:01;;;;;;;7.00;6.35;;;;;;;19.82;69.90;98904.72;5147191;28;20039;-75
2023/09/18 02:50:29;;;;;;;6.93;6.22;;;;;;;20.18;69.41;98970.09;5145231;28;20322;-75
2023/09/18 02:52:56;;;;;;;8.43;7.63;;;;;;;20.15;70.35;98967.72;5146608;28;20047;-75
2023/09/18 02:55:22;;;;;;;7.82;7.13;;;;;;;20.14;69.73;98968.72;5146849;28;20054;-75
2023/09/18 02:57:49;;;;;;;7.10;6.22;;;;;;;20.15;69.98;98972.25;5146792;28;20294;-75
2023/09/18 03:00:17;;;;;;;7.60;5.90;;;;;;;20.18;68.29;98964.72;5146782;27;20043;-75
2023/09/18 03:02:44;;;;;;;6.75;6.10;;;;;;;20.15;69.22;98967.72;5146958;27;20047;-75
2023/09/18 03:05:10;;;;;;;6.80;6.10;;;;;;;19.95;69.30;98944.66;5151285;27;20302;-74
2023/09/18 03:07:38;;;;;;;7.45;6.78;;;;;;;20.06;68.87;98962.41;5150950;27;20054;-74
2023/09/18 03:10:07;;;;;;;7.32;6.63;;;;;;;19.22;68.67;98868.59;5150897;27;20035;-75
2023/09/18 03:12:34;;;;;;;6.72;6.07;;;;;;;19.70;70.01;98923.88;5149971;27;20046;-75
2023/09/18 03:15:00;;;;;;;7.63;6.88;;;;;;;19.69;68.89;98966.03;5149676;27;20047;-75
2023/09/18 03:17:27;;;;;;;8.45;6.97;;;;;;;19.55;69.71;98955.81;5149813;27;20219;-75
2023/09/18 03:19:54;;;;;;;8.25;7.45;;;;;;;19.50;69.67;98953.56;5150575;27;20035;-75
2023/09/18 03:22:20;;;;;;;7.53;6.80;;;;;;;19.49;70.20;98946.50;5150611;27;20051;-75
2023/09/18 03:24:49;;;;;;;9.30;7.15;;;;;;;19.48;70.11;98942.13;5150080;27;20287;-75
2023/09/18 03:27:16;;;;;;;8.55;7.65;;;;;;;19.65;70.31;98939.63;5149422;27;20035;-74
2023/09/18 03:29:42;;;;;;;8.60;7.68;;;;;;;19.63;70.61;98939.78;5149445;27;20043;-75
2023/09/18 03:32:11;;;;;;;8.07;7.30;;;;;;;19.43;70.24;98911.34;5150679;27;20066;-75
2023/09/18 03:34:39;;;;;;;8.25;7.45;;;;;;;19.39;70.32;98910.78;5150566;27;20291;-75
2023/09/18 03:37:05;;;;;;;10.00;8.50;;;;;;;19.55;70.65;98937.84;5150664;27;20055;-75
2023/09/18 03:39:32;;;;;;;9.02;7.57;;;;;;;19.44;70.84;98881.63;5150271;27;20088;-75
2023/09/18 03:42:00;;;;;;;8.55;7.72;;;;;;;19.52;70.29;98930.09;5150141;27;20038;-75
2023/09/18 03:44:27;;;;;;;8.75;7.88;;;;;;;19.39;70.79;98932.28;5150193;27;20062;-75
2023/09/18 03:46:54;;;;;;;8.73;7.82;;;;;;;19.24;70.89;98931.91;5150161;27;20039;-75
2023/09/18 03:49:20;;;;;;;8.85;7.95;;;;;;;19.08;71.67;98917.44;5150247;27;20035;-75
2023/09/18 03:51:47;;;;;;;8.60;7.78;;;;;;;19.02;71.77;98924.25;5149038;27;20084;-75
2023/09/18 03:54:14;;;;;;;9.90;8.90;;;;;;;19.02;71.93;98916.19;5149670;27;20039;-75
2023/09/18 03:56:41;;;;;;;9.57;8.55;;;;;;;19.02;71.80;98918.03;5148902;27;20047;-75
2023/09/18 03:59:10;;;;;;;9.68;8.75;;;;;;;19.05;71.93;98909.69;5150146;27;20047;-75
2023/09/18 04:01:36;;;;;;;9.75;8.68;;;;;;;18.75;71.78;98866.00;5149666;27;20291;-75
2023/09/18 04:04:03;;;;;;;9.43;8.43;;;;;;;19.22;71.33;98903.50;5148694;27;20035;-75
2023/09/18 04:06:37;;;;;;;9.25;8.10;;;;;;;19.06;71.51;98853.13;5149738;27;20049;-75
2023/09/18 04:09:04;;;;;;;8.80;8.00;;;;;;;18.94;71.70;98848.97;5149759;27;20046;-75
2023/09/18 04:11:31;;;;;;;8.77;7.82;;;;;;;19.39;71.65;98904.56;5148615;27;20314;-75
2023/09/18 04:13:58;;;;;;;8.52;7.72;;;;;;;19.43;72.28;98897.91;5149370;27;20045;-75
2023/09/18 04:16:27;;;;;;;9.15;8.25;;;;;;;19.45;72.30;98901.28;5148259;27;20387;-75
2023/09/18 04:18:54;;;;;;;10.27;9.30;;;;;;;19.33;71.48;98894.41;5149463;27;20222;-75
2023/09/18 04:21:21;;;;;;;9.15;8.25;;;;;;;19.26;71.52;98898.69;5148420;27;20175;-75
2023/09/18 04:23:48;;;;;;;10.02;8.60;;;;;;;19.28;71.71;98897.53;5149509;27;20080;-75
2023/09/18 04:26:15;;;;;;;8.88;8.05;;;;;;;19.43;72.03;98889.84;5149457;27;20081;-75
2023/09/18 04:28:43;;;;;;;9.60;8.65;;;;;;;19.33;71.96;98894.41;5149025;27;20043;-75
2023/09/18 04:31:10;;;;;;;9.95;8.95;;;;;;;19.12;72.01;98898.19;5149622;27;20039;-75
2023/09/18 04:33:39;;;;;;;9.32;8.18;;;;;;;18.65;72.69;98811.53;5149248;27;20051;-75
2023/09/18 04:36:06;;;;;;;9.75;8.75;;;;;;;19.15;72.74;98902.41;5148608;27;20230;-74
2023/09/18 04:38:32;;;;;;;10.07;8.65;;;;;;;19.24;72.74;98904.22;5148794;27;20337;-75
2023/09/18 04:41:00;;;;;;;9.88;8.98;;;;;;;18.68;72.52;98810.38;5148801;27;20181;-75
2023/09/18 04:43:29;;;;;;;9.80;8.20;;;;;;;19.03;72.39;98893.72;5148987;27;20065;-75
2023/09/18 04:45:55;;;;;;;13.90;9.00;;;;;;;18.86;73.33;98878.41;5148937;27;20070;-75
2023/09/18 04:48:22;;;;;;;9.88;8.98;;;;;;;18.88;72.90;98879.09;5148269;27;20054;-75
2023/09/18 04:50:50;;;;;;;9.60;8.70;;;;;;;18.70;72.95;98848.66;5147785;27;20072;-75
2023/09/18 04:53:17;;;;;;;11.65;9.25;;;;;;;18.81;73.50;98883.38;5148280;27;20035;-75
2023/09/18 04:55:44;;;;;;;11.60;9.73;;;;;;;18.86;73.52;98873.03;5147734;27;20043;-75
2023/09/18 04:58:11;;;;;;;10.27;9.27;;;;;;;19.00;73.26;98877.91;5147696;27;20039;-75
2023/09/18 05:00:38;;;;;;;11.65;9.85;;;;;;;18.95;72.74;98879.34;5148412;27;20035;-75
2023/09/18 05:03:05;;;;;;;12.00;10.18;;;;;;;18.83;73.27;98870.66;5147572;27;20336;-75
2023/09/18 05:05:34;;;;;;;9.93;8.25;;;;;;;18.89;73.79;98868.22;5148270;27;20039;-75
2023/09/18 05:08:04;;;;;;;11.88;10.77;;;;;;;18.48;73.26;98806.91;5147378;27;20069;-75
2023/09/18 05:10:31;;;;;;;15.68;9.63;;;;;;;18.80;73.70;98866.41;5148523;27;20332;-75
2023/09/18 05:12:59;;;;;;;12.35;10.07;;;;;;;18.46;73.59;98803.53;5148546;27;20120;-75
2023/09/18 05:15:29;;;;;;;10.52;9.50;;;;;;;18.81;73.76;98862.75;5148677;27;20195;-75
2023/09/18 05:17:57;;;;;;;10.40;9.30;;;;;;;18.68;73.92;98872.97;5147841;27;20043;-75
2023/09/18 05:20:25;;;;;;;12.00;9.82;;;;;;;18.72;74.04;98874.38;5148599;27;20059;-75
2023/09/18 05:22:53;;;;;;;11.10;10.00;;;;;;;18.86;73.46;98871.19;5147217;27;20356;-75
2023/09/18 05:25:23;;;;;;;11.27;9.50;;;;;;;18.89;73.46;98878.09;5147122;27;20050;-75
2023/09/18 05:27:55;;;;;;;10.02;9.02;;;;;;;18.99;74.11;98883.41;5146913;27;20362;-75
2023/09/18 05:30:27;;;;;;;10.93;9.82;;;;;;;19.01;73.65;98876.91;5147000;27;20046;-75
2023/09/18 05:32:54;;;;;;;10.30;8.88;;;;;;;18.97;73.14;98877.34;5148186;27;20221;-75
2023/09/18 05:35:21;;;;;;;10.57;9.05;;;;;;;18.97;73.79;98866.63;5146835;27;20039;-75
2023/09/18 05:37:48;;;;;;;10.93;9.68;;;;;;;18.98;73.77;98865.63;5146687;27;20043;-75
2023/09/18 05:40:15;;;;;;;10.77;9.68;;;;;;;18.85;73.30;98864.13;5147847;27;20100;-75
2023/09/18 05:42:45;;;;;;;11.63;10.48;;;;;;;18.83;73.56;98854.53;5147476;27;20099;-75
2023/09/18 05:45:12;;;;;;;11.43;9.23;;;;;;;18.53;73.58;98789.41;5146704;27;20046;-75
2023/09/18 05:47:40;;;;;;;11.50;10.00;;;;;;;18.68;73.71;98813.91;5147125;27;20039;-75
2023/09/18 05:50:08;;;;;;;11.68;9.50;;;;;;;18.84;73.41;98843.66;5147929;27;20039;-75
2023/09/18 05:52:35;;;;;;;11.38;10.20;;;;;;;18.89;73.55;98849.41;5146879;27;20066;-75
2023/09/18 05:55:03;;;;;;;13.45;12.05;;;;;;;18.84;73.78;98846.34;5147591;27;20295;-75
2023/09/18 05:57:30;;;;;;;11.50;9.48;;;;;;;18.92;73.63;98835.69;5147239;27;20042;-75
2023/09/18 05:59:58;;;;;;;13.93;10.02;;;;;;;18.57;73.81;98782.75;5147182;27;20042;-75
2023/09/18 06:02:25;;;;;;;11.73;10.57;;;;;;;18.94;73.26;98802.47;5154198;27;20050;-75
2023/09/18 06:04:57;;;;;;;11.40;10.02;;;;;;;19.16;73.33;98827.06;5158836;27;20035;-75
2023/09/18 06:07:25;;;;;;;10.25;9.25;;;;;;;19.03;73.14;98825.72;5147936;27;20043;-75
2023/09/18 06:09:52;;;;;;;13.93;10.32;;;;;;;19.09;73.46;98823.28;5147409;27;20169;-75
2023/09/18 06:12:18;;;;;;;11.38;10.23;;;;;;;19.19;73.10;98823.22;5147015;27;20057;-75
2023/09/18 06:14:47;;;;;;;12.32;9.65;;;;;;;19.23;73.20;98814.72;5146212;27;20043;-75
2023/09/18 06:17:16;;;;;;;10.10;9.15;;;;;;;19.36;72.93;98805.44;5146892;27;20047;-76
2023/09/18 06:19:42;;;;;;;10.88;9.77;;;;;;;19.42;72.64;98808.38;5147417;27;20035;-75
2023/09/18 06:22:09;;;;;;;10.95;9.68;;;;;;;19.45;73.12;98812.59;5146760;27;20043;-75
2023/09/18 06:24:36;;;;;;;12.60;9.43;;;;;;;19.29;73.02;98780.16;5147020;27;20046;-75
2023/09/18 06:27:04;;;;;;;11.23;10.13;;;;;;;19.44;72.93;98811.75;5147021;27;20054;-75
2023/09/18 06:29:31;;;;;;;11.20;9.82;;;;;;;19.32;71.87;98794.16;5146864;27;20050;-74
2023/09/18 06:31:58;;;;;;;11.07;9.40;;;;;;;18.10;72.85;98572.78;5146968;27;20043;-74
2023/09/18 06:34:27;;;;;;;10.77;9.75;;;;;;;19.63;72.19;98824.19;5146688;27;20043;-75
2023/09/18 06:36:54;;;;;;;10.75;9.60;;;;;;;19.69;71.74;98822.72;5145725;27;20337;-75
2023/09/18 06:39:22;;;;;;;9.82;8.82;;;;;;;19.79;72.43;98820.78;5145851;27;20039;-74
2023/09/18 06:41:49;;;;;;;12.00;10.48;;;;;;;19.79;71.65;98810.03;5146549;27;20084;-75
2023/09/18 06:44:16;;;;;;;10.70;9.65;;;;;;;19.82;71.63;98807.91;5147158;28;20104;-74
2023/09/18 06:46:42;;;;;;;12.02;10.38;;;;;;;19.78;71.30;98808.34;5146951;28;20039;-74
2023/09/18 06:49:09;;;;;;;13.38;9.55;;;;;;;19.83;71.92;98798.00;5145791;28;20046;-74
2023/09/18 06:51:37;;;;;;;12.82;9.32;;;;;;;19.71;71.23;98770.50;5145634;28;20053;-74
2023/09/18 06:54:04;;;;;;;10.95;9.60;;;;;;;18.98;70.89;98650.81;5146653;27;20083;-74
2023/09/18 06:56:31;;;;;;;12.30;9.13;;;;;;;19.98;70.90;98793.75;5146826;28;20115;-75
2023/09/18 06:58:58;;;;;;;11.68;10.10;;;;;;;19.86;70.99;98765.41;5145733;28;20046;-74
2023/09/18 07:01:25;;;;;;;11.23;8.85;;;;;;;20.09;70.79;98795.31;5146292;28;20229;-74
2023/09/18 07:03:52;;;;;;;10.25;9.23;;;;;;;20.16;71.62;98799.91;5146660;28;20206;-74
2023/09/18 07:06:20;;;;;;;10.57;8.38;;;;;;;20.23;70.88;98799.31;5145541;28;20050;-74
2023/09/18 07:08:49;;;;;;;11.52;9.98;;;;;;;20.30;70.27;98793.13;5146766;27;20066;-74
2023/09/18 07:11:16;;;;;;;9.60;8.70;;;;;;;20.37;70.19;98801.41;5146336;28;20039;-74
2023/09/18 07:13:44;;;;;;;8.93;8.02;;;;;;;20.36;70.49;98786.25;5146965;28;20051;-74
2023/09/18 07:16:11;;;;;;;9.35;7.55;;;;;;;20.34;69.96;98769.44;5145066;28;20057;-74
2023/09/18 07:18:38;;;;;;;8.40;7.53;;;;;;;20.39;69.18;98767.09;5145330;28;20046;-74
2023/09/18 07:21:05;;;;;;;7.90;6.80;;;;;;;20.44;69.20;98768.31;5146367;28;20035;-74
2023/09/18 07:23:32;;;;;;;11.40;7.50;;;;;;;20.72;68.42;98787.75;5146610;28;20043;-74
2023/09/18 07:26:00;;;;;;;7.78;6.28;;;;;;;20.80;68.12;98770.78;5146468;28;20291;-74
2023/09/18 07:28:27;;;;;;;10.82;7.20;;;;;;;20.87;67.90;98776.38;5145326;28;20122;-74
2023/09/18 07:30:54;;;;;;;8.77;7.00;;;;;;;20.81;67.04;98753.63;5146554;28;20043;-74
2023/09/18 07:33:20;;;;;;;6.55;5.80;;;;;;;20.99;67.45;98780.44;5146463;28;20039;-74
2023/09/18 07:35:48;;;;;;;7.03;6.32;;;;;;;21.08;66.67;98788.41;5146469;28;20039;-74
2023/09/18 07:38:15;;;;;;;7.80;6.15;;;;;;;21.19;66.95;98778.31;5145390;28;20137;-74
2023/09/18 07:40:42;;;;;;;8.43;6.30;;;;;;;20.98;66.32;98739.19;5145547;28;20045;-74
2023/09/18 07:43:10;;;;;;;8.25;6.30;;;;;;;21.33;66.15;98783.91;5146656;28;20039;-74
2023/09/18 07:45:39;;;;;;;11.15;6.63;;;;;;;21.22;65.51;98748.34;5146337;28;20053;-74
2023/09/18 07:48:07;;;;;;;6.90;6.20;;;;;;;21.39;65.75;98775.16;5146094;28;20299;-74
2023/09/18 07:50:34;;;;;;;9.90;6.45;;;;;;;21.49;65.41;98783.06;5148154;27;20035;-74
2023/09/18 07:53:00;;;;;;;7.13;6.43;;;;;;;21.50;66.02;98779.38;5150203;27;20288;-75
2023/09/18 07:55:27;;;;;;;9.27;5.88;;;;;;;21.31;65.54;98729.31;5148884;27;20054;-74
2023/09/18 07:57:54;;;;;;;7.25;6.43;;;;;;;21.64;65.82;98778.69;5148911;27;20035;-74
2023/09/18 08:00:22;;;;;;;8.00;5.22;;;;;;;21.69;66.41;98764.72;5149707;27;20217;-74
2023/09/18 08:02:54;;;;;;;9.93;6.55;;;;;;;21.65;65.35;98761.50;5149753;27;20099;-75
2023/09/18 08:05:21;;;;;;;9.02;6.10;;;;;;;21.71;66.14;98747.34;5133347;27;20043;-74
2023/09/18 08:07:49;;;;;;;9.13;6.30;;;;;;;21.89;65.23;98757.97;5149351;27;20303;-75
2023/09/18 08:10:16;;;;;;;9.75;6.78;;;;;;;22.03;65.01;98756.44;5149712;27;20291;-74
2023/09/18 08:12:42;;;;;;;6.93;6.22;;;;;;;22.06;64.88;98766.88;5149551;27;20051;-74
2023/09/18 08:15:11;;;;;;;8.30;5.65;;;;;;;22.15;63.83;98755.06;5149720;27;20042;-74
2023/09/18 08:17:40;;;;;;;8.30;5.75;;;;;;;22.15;63.53;98754.22;5149154;27;20059;-75
2023/09/18 08:20:12;;;;;;;9.93;6.38;;;;;;;22.20;64.42;98754.53;5148391;27;20047;-75
2023/09/18 08:22:39;;;;;;;7.93;5.68;;;;;;;22.23;63.45;98746.94;5149744;27;20043;-74
2023/09/18 08:25:07;;;;;;;12.15;6.28;;;;;;;22.32;64.13;98750.44;5149165;27;20042;-73
2023/09/18 08:27:35;;;;;;;11.30;6.22;;;;;;;22.45;62.22;98739.97;5149837;27;20122;-75
2023/09/18 08:30:02;;;;;;;12.82;6.97;;;;;;;22.43;61.99;98747.41;5149047;27;20060;-73
2023/09/18 08:32:30;;;;;;;6.60;5.28;;;;;;;22.48;62.78;98736.09;5148672;27;20287;-75
2023/09/18 08:34:58;;;;;;;9.93;6.18;;;;;;;22.46;61.46;98721.91;5149201;27;20068;-74
2023/09/18 08:37:25;;;;;;;7.10;5.15;;;;;;;22.49;62.65;98727.81;5148225;27;20080;-75
2023/09/18 08:39:51;;;;;;;10.98;5.80;;;;;;;22.51;62.89;98741.97;5148727;27;20046;-74
2023/09/18 08:42:19;;;;;;;9.35;5.72;;;;;;;22.49;62.91;98732.38;5147642;27;20043;-74
2023/09/18 08:44:50;;;;;;;8.38;5.88;;;;;;;22.52;61.71;98730.16;5130814;27;20047;-73
2023/09/18 08:47:17;;;;;;;7.72;6.30;;;;;;;22.61;61.83;98739.09;5148634;27;20098;-73
2023/09/18 08:49:45;;;;;;;8.63;6.22;;;;;;;22.67;61.10;98714.09;5149301;27;20310;-74
2023/09/18 08:52:15;;;;;;;6.32;5.63;;;;;;;22.82;61.11;98715.00;5148767;27;20102;-75
2023/09/18 08:54:44;;;;;;;9.85;6.47;;;;;;;22.81;61.18;98724.13;5148963;27;20074;-74
2023/09/18 08:57:12;;;;;;;10.23;5.93;;;;;;;22.60;60.66;98684.25;5148891;27;20108;-74
2023/09/18 08:59:40;;;;;;;7.07;5.38;;;;;;;22.62;59.14;98668.69;5148727;27;20043;-74
2023/09/18 09:02:11;;;;;;;7.72;5.15;;;;;;;23.16;58.54;98717.31;5147825;27;20061;-74
2023/09/18 09:04:38;;;;;;;13.15;5.78;;;;;;;23.23;58.85;98720.97;5148639;27;20132;-74
2023/09/18 09:07:06;;;;;;;7.18;5.13;;;;;;;23.19;59.29;98727.75;5148097;27;20069;-74
2023/09/18 09:09:34;;;;;;;7.82;5.28;;;;;;;23.32;58.37;98717.22;5148330;27;20046;-74
2023/09/18 09:12:01;;;;;;;8.32;5.72;;;;;;;23.43;57.38;98721.34;5148451;27;20039;-75
2023/09/18 09:14:28;;;;;;;6.40;5.50;;;;;;;23.42;58.25;98716.97;5148599;27;20321;-73
2023/09/18 09:16:56;;;;;;;6.38;4.93;;;;;;;23.40;58.59;98715.47;5148089;27;20054;-75
2023/09/18 09:19:30;;;;;;;8.45;4.93;;;;;;;22.87;58.34;98628.84;5147341;27;20043;-74
2023/09/18 09:21:58;;;;;;;7.57;4.93;;;;;;;23.50;57.78;98710.66;5148516;27;20072;-74
2023/09/18 09:24:39;;;;;;;7.25;4.78;;;;;;;23.38;57.58;98685.06;5148516;27;20053;-74
2023/09/18 09:27:06;;;;;;;6.28;5.15;;;;;;;23.63;58.20;98703.59;5148171;27;20091;-75
2023/09/18 09:29:34;;;;;;;5.50;4.75;;;;;;;23.67;57.68;98715.72;5148368;27;20176;-75
2023/09/18 09:32:14;;;;;;;5.80;5.22;;;;;;;23.75;57.80;98700.44;5148463;27;20031;-74
2023/09/18 09:34:42;;;;;;;10.43;5.07;;;;;;;23.89;57.76;98710.44;5147834;27;20043;-74
2023/09/18 09:37:09;;;;;;;8.05;5.80;;;;;;;23.84;55.70;98707.47;5147733;27;20307;-74
2023/09/18 09:39:48;;;;;;;11.10;4.82;;;;;;;23.86;56.08;98698.13;5147907;27;20047;-75
2023/09/18 09:42:18;;;;;;;7.95;5.35;;;;;;;23.83;56.42;98682.25;5146683;27;20217;-74
2023/09/18 09:44:45;;;;;;;8.45;5.50;;;;;;;23.86;55.89;98702.69;5147869;27;20035;-73
2023/09/18 09:47:14;;;;;;;7.18;5.05;;;;;;;23.99;54.63;98695.66;5147562;27;20039;-74
2023/09/18 09:49:47;;;;;;;7.22;5.10;;;;;;;23.76;56.11;98653.44;5147617;27;20043;-74
2023/09/18 09:52:21;;;;;;;5.60;4.75;;;;;;;23.96;55.42;98681.63;5147470;27;20219;-75
2023/09/18 09:54:49;;;;;;;8.38;5.32;;;;;;;23.98;55.01;98666.06;5147545;27;20047;-75
2023/09/18 09:57:17;;;;;;;7.43;5.22;;;;;;;24.00;55.38;98666.72;5147348;27;20043;-74
2023/09/18 09:59:44;;;;;;;9.60;5.20;;;;;;;23.99;55.52;98649.63;5147716;27;20112;-75
2023/09/18 10:02:14;;;;;;;7.88;4.97;;;;;;;23.51;56.08;98602.28;5147508;27;20051;-73
2023/09/18 10:04:45;;;;;;;8.98;5.15;;;;;;;23.91;55.67;98657.81;5146861;27;20035;-74
2023/09/18 10:07:12;;;;;;;8.38;5.80;;;;;;;23.93;55.97;98658.47;5147096;27;20047;-74
2023/09/18 10:09:42;;;;;;;6.30;4.90;;;;;;;24.01;56.31;98654.88;5147265;27;20039;-74
2023/09/18 10:12:13;;;;;;;6.10;5.38;;;;;;;22.74;54.67;98423.34;5146229;27;20279;-73
2023/09/18 10:14:42;;;;;;;8.38;4.78;;;;;;;24.19;54.39;98657.19;5146565;27;20055;-71
2023/09/18 10:17:17;;;;;;;4.78;4.15;;;;;;;24.17;54.34;98643.00;5147078;27;20080;-72
2023/09/18 10:19:52;;;;;;;6.75;4.85;;;;;;;24.19;54.96;98658.03;5148222;27;20054;-72
2023/09/18 10:22:32;;;;;;;8.48;4.90;;;;;;;24.09;55.23;98668.31;5128520;27;20053;-72
2023/09/18 10:25:07;;;;;;;6.55;5.22;;;;;;;24.23;54.30;98647.66;5146059;27;20054;-72
2023/09/18 10:27:38;;;;;;;7.35;5.28;;;;;;;24.19;54.58;98630.13;5147127;27;20034;-73
2023/09/18 10:30:10;;;;;;;8.18;5.82;;;;;;;24.26;54.96;98629.16;5147848;27;20062;-73
2023/09/18 10:32:38;;;;;;;6.35;5.00;;;;;;;24.30;54.16;98632.34;5146275;27;20035;-74
2023/09/18 10:35:07;;;;;;;5.93;4.30;;;;;;;24.33;54.72;98634.66;5146484;27;20055;-73
2023/09/18 10:37:36;;;;;;;8.18;5.10;;;;;;;24.30;53.84;98644.00;5146344;27;20035;-73
2023/09/18 10:40:07;;;;;;;8.32;4.85;;;;;;;24.11;53.94;98592.31;5146538;27;20042;-72
2023/09/18 10:42:35;;;;;;;10.10;5.50;;;;;;;24.40;53.91;98624.75;5146748;27;20046;-73
2023/09/18 10:45:04;;;;;;;7.13;5.00;;;;;;;24.29;54.36;98590.88;5146220;27;20068;-73
2023/09/18 10:47:32;;;;;;;6.20;4.95;;;;;;;24.45;53.44;98622.31;5147306;27;20042;-73
2023/09/18 10:50:00;;;;;;;8.95;4.68;;;;;;;24.50;52.98;98613.63;5147245;27;20055;-73
2023/09/18 10:52:27;;;;;;;9.98;4.70;;;;;;;23.89;53.43;98492.09;5146330;28;20031;-73
2023/09/18 10:54:54;;;;;;;8.10;4.78;;;;;;;24.61;53.31;98605.81;5145986;28;20049;-72
2023/09/18 10:57:21;;;;;;;8.55;4.90;;;;;;;24.73;53.39;98591.81;5128271;28;20057;-72
2023/09/18 10:59:49;;;;;;;7.38;5.28;;;;;;;24.59;52.64;98577.25;5147109;27;20168;-73
2023/09/18 11:02:17;;;;;;;6.07;4.32;;;;;;;24.51;52.81;98582.78;5146582;28;20050;-72
2023/09/18 11:04:45;;;;;;;9.73;5.03;;;;;;;24.78;52.19;98583.94;5145528;28;20039;-73
2023/09/18 11:07:21;;;;;;;5.13;4.13;;;;;;;24.87;52.38;98590.91;5146331;28;20296;-73
2023/09/18 11:09:48;;;;;;;8.65;5.00;;;;;;;24.84;51.55;98584.00;5145523;28;20305;-73
2023/09/18 11:12:17;;;;;;;6.10;4.75;;;;;;;24.32;51.92;98481.34;5146085;27;20039;-72
2023/09/18 11:14:56;;;;;;;10.10;4.65;;;;;;;24.81;51.14;98551.88;5145727;27;20047;-72
2023/09/18 11:17:31;;;;;;;8.05;4.75;;;;;;;24.96;50.70;98630.38;5146038;27;20311;-75
2023/09/18 11:20:11;;;;;;;7.07;4.75;;;;;;;24.93;51.98;98581.97;5145413;28;20046;-73
2023/09/18 11:22:39;;;;;;;7.28;5.03;;;;;;;24.91;51.76;98578.63;5146380;27;20096;-72
2023/09/18 11:25:46;;;;;;;8.32;5.05;;;;;;;24.94;51.14;98575.53;5149092;27;20043;-73
2023/09/18 11:28:16;;;;;;;7.10;4.93;;;;;;;24.95;50.74;98571.78;5144280;27;20134;-73
2023/09/18 11:30:58;;;;;;;6.05;4.40;;;;;;;24.74;51.59;98542.84;5149172;27;20387;-73
2023/09/18 11:33:35;;;;;;;8.77;4.63;;;;;;;24.98;51.68;98579.53;5150812;27;20047;-73
2023/09/18 11:36:07;;;;;;;5.82;4.60;;;;;;;24.99;51.84;98564.09;5150798;27;20091;-73